sensor_id;sensor_type;location;lat;lon;timestamp;P1;durP1;ratioP1;P2;durP2;ratioP2
23868;SDS011;12115;47.128;15.422;2023-07-09T00:01:23;9.48;;;4.40;;
23868;SDS011;12115;47.128;15.422;2023-07-09T00:03:50;8.27;;;4.40;;
23868;SDS011;12115;47.128;15.422;2023-07-09T00:06:20;5.00;;;3.92;;
23868;SDS011;12115;47.128;15.422;2023-07-09T00:08:48;7.18;;;4.70;;
23868;SDS011;12115;47.128;15.422;2023-07-09T00:11:16;7.88;;;4.13;;
23868;SDS011;12115;47.128;15.422;2023-07-09T00:13:43;5.30;;;4.00;;
23868;SDS011;12115;47.128;15.422;2023-07-09T00:16:12;6.10;;;4.28;;
23868;SDS011;12115;47.128;15.422;2023-07-09T00:18:43;6.93;;;4.15;;
23868;SDS011;12115;47.128;15.422;2023-07-09T00:21:11;9.57;;;4.05;;
23868;SDS011;12115;47.128;15.422;2023-07-09T00:23:38;6.25;;;4.00;;
23868;SDS011;12115;47.128;15.422;2023-07-09T00:26:12;6.60;;;4.03;;
23868;SDS011;12115;47.128;15.422;2023-07-09T00:28:41;4.82;;;3.42;;
23868;SDS011;12115;47.128;15.422;2023-07-09T00:31:15;5.72;;;4.25;;
23868;SDS011;12115;47.128;15.422;2023-07-09T00:33:42;5.88;;;4.43;;
23868;SDS011;12115;47.128;15.422;2023-07-09T00:36:14;4.15;;;3.45;;
23868;SDS011;12115;47.128;15.422;2023-07-09T00:38:44;8.80;;;4.35;;
23868;SDS011;12115;47.128;15.422;2023-07-09T00:41:16;5.15;;;3.97;;
23868;SDS011;12115;47.128;15.422;2023-07-09T00:43:46;7.20;;;3.95;;
23868;SDS011;12115;47.128;15.422;2023-07-09T00:48:50;5.78;;;3.92;;
23868;SDS011;12115;47.128;15.422;2023-07-09T00:51:27;5.90;;;4.05;;
23868;SDS011;12115;47.128;15.422;2023-07-09T00:53:58;6.03;;;4.05;;
23868;SDS011;12115;47.128;15.422;2023-07-09T00:56:29;7.13;;;4.55;;
23868;SDS011;12115;47.128;15.422;2023-07-09T00:59:00;6.63;;;4.13;;
23868;SDS011;12115;47.128;15.422;2023-07-09T01:01:31;8.27;;;3.92;;
23868;SDS011;12115;47.128;15.422;2023-07-09T01:04:00;4.28;;;3.88;;
23868;SDS011;12115;47.128;15.422;2023-07-09T01:07:14;6.53;;;4.20;;
23868;SDS011;12115;47.128;15.422;2023-07-09T01:09:23;6.00;;;3.97;;
23868;SDS011;12115;47.128;15.422;2023-07-09T01:11:51;5.30;;;3.95;;
23868;SDS011;12115;47.128;15.422;2023-07-09T01:14:22;5.78;;;4.13;;
23868;SDS011;12115;47.128;15.422;2023-07-09T01:16:56;5.75;;;3.67;;
23868;SDS011;12115;47.128;15.422;2023-07-09T01:19:29;5.35;;;3.78;;
23868;SDS011;12115;47.128;15.422;2023-07-09T01:22:08;7.28;;;4.18;;
23868;SDS011;12115;47.128;15.422;2023-07-09T01:27:12;4.13;;;3.55;;
23868;SDS011;12115;47.128;15.422;2023-07-09T01:29:40;5.43;;;3.88;;
23868;SDS011;12115;47.128;15.422;2023-07-09T01:32:13;7.38;;;4.03;;
23868;SDS011;12115;47.128;15.422;2023-07-09T01:34:40;13.45;;;4.30;;
23868;SDS011;12115;47.128;15.422;2023-07-09T01:37:07;5.18;;;3.78;;
23868;SDS011;12115;47.128;15.422;2023-07-09T01:39:34;5.03;;;4.00;;
23868;SDS011;12115;47.128;15.422;2023-07-09T01:42:03;7.65;;;4.03;;
23868;SDS011;12115;47.128;15.422;2023-07-09T01:44:32;5.90;;;4.40;;
23868;SDS011;12115;47.128;15.422;2023-07-09T01:46:59;5.47;;;4.40;;
23868;SDS011;12115;47.128;15.422;2023-07-09T01:49:28;6.15;;;4.20;;
23868;SDS011;12115;47.128;15.422;2023-07-09T01:51:56;5.00;;;4.07;;
23868;SDS011;12115;47.128;15.422;2023-07-09T01:54:30;5.90;;;4.10;;
23868;SDS011;12115;47.128;15.422;2023-07-09T01:57:12;7.35;;;3.95;;
23868;SDS011;12115;47.128;15.422;2023-07-09T01:59:53;5.53;;;3.65;;
23868;SDS011;12115;47.128;15.422;2023-07-09T02:02:23;5.65;;;3.75;;
23868;SDS011;12115;47.128;15.422;2023-07-09T02:04:52;6.47;;;4.45;;
23868;SDS011;12115;47.128;15.422;2023-07-09T02:07:21;5.53;;;4.07;;
23868;SDS011;12115;47.128;15.422;2023-07-09T02:09:49;7.10;;;3.70;;
23868;SDS011;12115;47.128;15.422;2023-07-09T02:12:17;6.28;;;4.20;;
23868;SDS011;12115;47.128;15.422;2023-07-09T02:14:45;4.85;;;3.80;;
23868;SDS011;12115;47.128;15.422;2023-07-09T02:17:13;12.13;;;3.90;;
23868;SDS011;12115;47.128;15.422;2023-07-09T02:19:42;6.75;;;4.05;;
23868;SDS011;12115;47.128;15.422;2023-07-09T02:22:10;7.75;;;4.25;;
23868;SDS011;12115;47.128;15.422;2023-07-09T02:24:38;5.88;;;4.22;;
23868;SDS011;12115;47.128;15.422;2023-07-09T02:27:06;5.47;;;4.18;;
23868;SDS011;12115;47.128;15.422;2023-07-09T02:29:34;7.53;;;3.97;;
23868;SDS011;12115;47.128;15.422;2023-07-09T02:32:01;4.88;;;3.92;;
23868;SDS011;12115;47.128;15.422;2023-07-09T02:34:29;5.22;;;4.40;;
23868;SDS011;12115;47.128;15.422;2023-07-09T02:36:57;4.45;;;3.55;;
23868;SDS011;12115;47.128;15.422;2023-07-09T02:39:25;4.72;;;3.72;;
23868;SDS011;12115;47.128;15.422;2023-07-09T02:41:53;7.03;;;4.20;;
23868;SDS011;12115;47.128;15.422;2023-07-09T02:44:20;6.38;;;4.55;;
23868;SDS011;12115;47.128;15.422;2023-07-09T02:46:49;5.22;;;4.03;;
23868;SDS011;12115;47.128;15.422;2023-07-09T02:49:16;5.07;;;3.90;;
23868;SDS011;12115;47.128;15.422;2023-07-09T02:51:44;6.03;;;4.07;;
23868;SDS011;12115;47.128;15.422;2023-07-09T02:54:11;5.55;;;4.05;;
23868;SDS011;12115;47.128;15.422;2023-07-09T02:56:38;5.53;;;4.05;;
23868;SDS011;12115;47.128;15.422;2023-07-09T02:59:05;5.05;;;4.00;;
23868;SDS011;12115;47.128;15.422;2023-07-09T03:01:32;7.13;;;4.28;;
23868;SDS011;12115;47.128;15.422;2023-07-09T03:04:01;4.75;;;4.07;;
23868;SDS011;12115;47.128;15.422;2023-07-09T03:06:30;8.02;;;3.90;;
23868;SDS011;12115;47.128;15.422;2023-07-09T03:09:01;8.18;;;4.80;;
23868;SDS011;12115;47.128;15.422;2023-07-09T03:11:30;8.98;;;4.40;;
23868;SDS011;12115;47.128;15.422;2023-07-09T03:13:59;5.53;;;3.95;;
23868;SDS011;12115;47.128;15.422;2023-07-09T03:16:28;6.97;;;4.10;;
23868;SDS011;12115;47.128;15.422;2023-07-09T03:18:57;6.18;;;4.03;;
23868;SDS011;12115;47.128;15.422;2023-07-09T03:21:25;7.15;;;4.10;;
23868;SDS011;12115;47.128;15.422;2023-07-09T03:23:54;5.35;;;3.60;;
23868;SDS011;12115;47.128;15.422;2023-07-09T03:26:22;7.15;;;4.00;;
23868;SDS011;12115;47.128;15.422;2023-07-09T03:28:49;5.35;;;4.00;;
23868;SDS011;12115;47.128;15.422;2023-07-09T03:31:16;4.75;;;4.20;;
23868;SDS011;12115;47.128;15.422;2023-07-09T03:33:45;6.45;;;4.07;;
23868;SDS011;12115;47.128;15.422;2023-07-09T03:36:17;4.72;;;3.83;;
23868;SDS011;12115;47.128;15.422;2023-07-09T03:38:46;7.30;;;4.45;;
23868;SDS011;12115;47.128;15.422;2023-07-09T03:41:14;6.57;;;4.43;;
23868;SDS011;12115;47.128;15.422;2023-07-09T03:43:41;6.07;;;4.03;;
23868;SDS011;12115;47.128;15.422;2023-07-09T03:46:09;7.68;;;4.07;;
23868;SDS011;12115;47.128;15.422;2023-07-09T03:48:36;5.50;;;3.88;;
23868;SDS011;12115;47.128;15.422;2023-07-09T03:51:04;6.43;;;4.35;;
23868;SDS011;12115;47.128;15.422;2023-07-09T03:53:31;3.80;;;3.28;;
23868;SDS011;12115;47.128;15.422;2023-07-09T03:55:58;6.97;;;4.30;;
23868;SDS011;12115;47.128;15.422;2023-07-09T03:58:27;5.25;;;3.85;;
23868;SDS011;12115;47.128;15.422;2023-07-09T04:00:54;6.90;;;4.25;;
23868;SDS011;12115;47.128;15.422;2023-07-09T04:03:22;4.55;;;3.70;;
23868;SDS011;12115;47.128;15.422;2023-07-09T04:05:49;5.60;;;4.22;;
23868;SDS011;12115;47.128;15.422;2023-07-09T04:08:18;5.43;;;4.28;;
23868;SDS011;12115;47.128;15.422;2023-07-09T04:10:45;5.00;;;4.50;;
23868;SDS011;12115;47.128;15.422;2023-07-09T04:13:12;5.25;;;4.18;;
23868;SDS011;12115;47.128;15.422;2023-07-09T04:15:39;4.50;;;3.47;;
23868;SDS011;12115;47.128;15.422;2023-07-09T04:18:06;6.07;;;4.35;;
23868;SDS011;12115;47.128;15.422;2023-07-09T04:20:33;4.25;;;3.85;;
23868;SDS011;12115;47.128;15.422;2023-07-09T04:23:01;6.85;;;4.70;;
23868;SDS011;12115;47.128;15.422;2023-07-09T04:25:30;6.07;;;5.10;;
23868;SDS011;12115;47.128;15.422;2023-07-09T04:27:57;8.57;;;6.50;;
23868;SDS011;12115;47.128;15.422;2023-07-09T04:30:24;7.25;;;5.70;;
23868;SDS011;12115;47.128;15.422;2023-07-09T04:32:51;4.68;;;3.65;;
23868;SDS011;12115;47.128;15.422;2023-07-09T04:35:18;4.40;;;3.47;;
23868;SDS011;12115;47.128;15.422;2023-07-09T04:37:45;5.60;;;4.28;;
23868;SDS011;12115;47.128;15.422;2023-07-09T04:40:12;5.30;;;3.63;;
23868;SDS011;12115;47.128;15.422;2023-07-09T04:42:40;9.27;;;5.32;;
23868;SDS011;12115;47.128;15.422;2023-07-09T04:45:09;5.13;;;3.97;;
23868;SDS011;12115;47.128;15.422;2023-07-09T04:47:37;4.72;;;3.78;;
23868;SDS011;12115;47.128;15.422;2023-07-09T04:50:05;4.80;;;3.30;;
23868;SDS011;12115;47.128;15.422;2023-07-09T04:52:34;7.80;;;5.05;;
23868;SDS011;12115;47.128;15.422;2023-07-09T04:55:01;6.05;;;4.60;;
23868;SDS011;12115;47.128;15.422;2023-07-09T04:57:29;5.03;;;4.47;;
23868;SDS011;12115;47.128;15.422;2023-07-09T04:59:56;7.63;;;4.38;;
23868;SDS011;12115;47.128;15.422;2023-07-09T05:02:23;6.60;;;5.03;;
23868;SDS011;12115;47.128;15.422;2023-07-09T05:04:50;9.43;;;5.03;;
23868;SDS011;12115;47.128;15.422;2023-07-09T05:07:17;7.25;;;4.50;;
23868;SDS011;12115;47.128;15.422;2023-07-09T05:09:45;9.68;;;5.35;;
23868;SDS011;12115;47.128;15.422;2023-07-09T05:12:12;7.53;;;5.47;;
23868;SDS011;12115;47.128;15.422;2023-07-09T05:14:39;6.38;;;5.15;;
23868;SDS011;12115;47.128;15.422;2023-07-09T05:17:06;6.55;;;5.10;;
23868;SDS011;12115;47.128;15.422;2023-07-09T05:19:36;8.50;;;4.72;;
23868;SDS011;12115;47.128;15.422;2023-07-09T05:22:03;6.68;;;4.40;;
23868;SDS011;12115;47.128;15.422;2023-07-09T05:24:30;6.53;;;4.57;;
23868;SDS011;12115;47.128;15.422;2023-07-09T05:26:57;8.07;;;3.85;;
23868;SDS011;12115;47.128;15.422;2023-07-09T05:29:25;4.10;;;3.47;;
23868;SDS011;12115;47.128;15.422;2023-07-09T05:31:53;6.10;;;4.22;;
23868;SDS011;12115;47.128;15.422;2023-07-09T05:34:20;4.65;;;4.00;;
23868;SDS011;12115;47.128;15.422;2023-07-09T05:36:48;7.97;;;4.60;;
23868;SDS011;12115;47.128;15.422;2023-07-09T05:39:15;7.03;;;5.25;;
23868;SDS011;12115;47.128;15.422;2023-07-09T05:41:42;6.45;;;5.70;;
23868;SDS011;12115;47.128;15.422;2023-07-09T05:44:10;7.63;;;6.32;;
23868;SDS011;12115;47.128;15.422;2023-07-09T05:46:37;7.18;;;5.38;;
23868;SDS011;12115;47.128;15.422;2023-07-09T05:49:05;8.30;;;5.90;;
23868;SDS011;12115;47.128;15.422;2023-07-09T05:51:33;8.18;;;5.38;;
23868;SDS011;12115;47.128;15.422;2023-07-09T05:54:00;7.50;;;5.50;;
23868;SDS011;12115;47.128;15.422;2023-07-09T05:56:28;7.70;;;5.20;;
23868;SDS011;12115;47.128;15.422;2023-07-09T05:58:56;7.15;;;4.88;;
23868;SDS011;12115;47.128;15.422;2023-07-09T06:01:23;7.13;;;5.18;;
23868;SDS011;12115;47.128;15.422;2023-07-09T06:03:51;7.25;;;5.47;;
23868;SDS011;12115;47.128;15.422;2023-07-09T06:06:18;8.13;;;4.80;;
23868;SDS011;12115;47.128;15.422;2023-07-09T06:08:45;8.63;;;5.45;;
23868;SDS011;12115;47.128;15.422;2023-07-09T06:11:13;11.80;;;5.30;;
23868;SDS011;12115;47.128;15.422;2023-07-09T06:13:40;5.78;;;4.45;;
23868;SDS011;12115;47.128;15.422;2023-07-09T06:16:08;7.72;;;4.90;;
23868;SDS011;12115;47.128;15.422;2023-07-09T06:18:35;8.02;;;4.85;;
23868;SDS011;12115;47.128;15.422;2023-07-09T06:21:05;6.13;;;4.57;;
23868;SDS011;12115;47.128;15.422;2023-07-09T06:23:33;7.43;;;4.97;;
23868;SDS011;12115;47.128;15.422;2023-07-09T06:26:01;8.38;;;5.10;;
23868;SDS011;12115;47.128;15.422;2023-07-09T06:28:28;7.90;;;5.68;;
23868;SDS011;12115;47.128;15.422;2023-07-09T06:30:56;6.13;;;5.00;;
23868;SDS011;12115;47.128;15.422;2023-07-09T06:33:24;7.55;;;5.30;;
23868;SDS011;12115;47.128;15.422;2023-07-09T06:35:56;7.00;;;5.32;;
23868;SDS011;12115;47.128;15.422;2023-07-09T06:38:24;7.65;;;4.95;;
23868;SDS011;12115;47.128;15.422;2023-07-09T06:40:52;6.70;;;5.85;;
23868;SDS011;12115;47.128;15.422;2023-07-09T06:43:20;8.43;;;5.93;;
23868;SDS011;12115;47.128;15.422;2023-07-09T06:45:58;10.77;;;5.47;;
23868;SDS011;12115;47.128;15.422;2023-07-09T06:48:27;6.25;;;5.30;;
23868;SDS011;12115;47.128;15.422;2023-07-09T06:50:55;6.05;;;5.05;;
23868;SDS011;12115;47.128;15.422;2023-07-09T06:53:26;9.82;;;6.15;;
23868;SDS011;12115;47.128;15.422;2023-07-09T06:55:54;8.57;;;5.57;;
23868;SDS011;12115;47.128;15.422;2023-07-09T06:58:25;8.02;;;5.70;;
23868;SDS011;12115;47.128;15.422;2023-07-09T07:00:54;6.22;;;5.60;;
23868;SDS011;12115;47.128;15.422;2023-07-09T07:03:22;9.70;;;5.30;;
23868;SDS011;12115;47.128;15.422;2023-07-09T07:05:51;6.50;;;5.18;;
23868;SDS011;12115;47.128;15.422;2023-07-09T07:08:24;7.25;;;5.95;;
23868;SDS011;12115;47.128;15.422;2023-07-09T07:10:56;7.25;;;5.40;;
23868;SDS011;12115;47.128;15.422;2023-07-09T07:13:29;7.78;;;5.70;;
23868;SDS011;12115;47.128;15.422;2023-07-09T07:15:56;8.60;;;5.40;;
23868;SDS011;12115;47.128;15.422;2023-07-09T07:18:23;7.70;;;5.05;;
23868;SDS011;12115;47.128;15.422;2023-07-09T07:20:51;7.18;;;5.25;;
23868;SDS011;12115;47.128;15.422;2023-07-09T07:23:18;8.82;;;5.40;;
23868;SDS011;12115;47.128;15.422;2023-07-09T07:25:45;9.13;;;5.35;;
23868;SDS011;12115;47.128;15.422;2023-07-09T07:28:13;7.57;;;5.40;;
23868;SDS011;12115;47.128;15.422;2023-07-09T07:30:41;10.98;;;5.47;;
23868;SDS011;12115;47.128;15.422;2023-07-09T07:33:08;6.38;;;5.00;;
23868;SDS011;12115;47.128;15.422;2023-07-09T07:35:36;6.20;;;5.28;;
23868;SDS011;12115;47.128;15.422;2023-07-09T07:38:23;7.13;;;5.38;;
23868;SDS011;12115;47.128;15.422;2023-07-09T07:40:50;6.50;;;5.47;;
23868;SDS011;12115;47.128;15.422;2023-07-09T07:43:17;7.30;;;5.40;;
23868;SDS011;12115;47.128;15.422;2023-07-09T07:45:44;8.68;;;5.15;;
23868;SDS011;12115;47.128;15.422;2023-07-09T07:48:11;9.18;;;5.50;;
23868;SDS011;12115;47.128;15.422;2023-07-09T07:50:38;8.15;;;5.22;;
23868;SDS011;12115;47.128;15.422;2023-07-09T07:53:07;6.93;;;5.13;;
23868;SDS011;12115;47.128;15.422;2023-07-09T07:55:35;8.02;;;5.70;;
23868;SDS011;12115;47.128;15.422;2023-07-09T07:58:03;7.13;;;5.50;;
23868;SDS011;12115;47.128;15.422;2023-07-09T08:00:31;8.15;;;5.30;;
23868;SDS011;12115;47.128;15.422;2023-07-09T08:02:58;7.60;;;5.10;;
23868;SDS011;12115;47.128;15.422;2023-07-09T08:05:25;7.03;;;5.68;;
23868;SDS011;12115;47.128;15.422;2023-07-09T08:07:52;8.00;;;5.15;;
23868;SDS011;12115;47.128;15.422;2023-07-09T08:10:19;8.38;;;5.85;;
23868;SDS011;12115;47.128;15.422;2023-07-09T08:12:47;9.45;;;5.85;;
23868;SDS011;12115;47.128;15.422;2023-07-09T08:15:14;7.05;;;5.32;;
23868;SDS011;12115;47.128;15.422;2023-07-09T08:17:41;10.23;;;6.25;;
23868;SDS011;12115;47.128;15.422;2023-07-09T08:20:08;13.55;;;5.93;;
23868;SDS011;12115;47.128;15.422;2023-07-09T08:22:36;9.50;;;6.07;;
23868;SDS011;12115;47.128;15.422;2023-07-09T08:25:06;8.20;;;5.15;;
23868;SDS011;12115;47.128;15.422;2023-07-09T08:27:33;6.95;;;5.60;;
23868;SDS011;12115;47.128;15.422;2023-07-09T08:30:01;8.35;;;5.85;;
23868;SDS011;12115;47.128;15.422;2023-07-09T08:32:28;6.93;;;5.40;;
23868;SDS011;12115;47.128;15.422;2023-07-09T08:34:55;7.47;;;5.35;;
23868;SDS011;12115;47.128;15.422;2023-07-09T08:37:42;8.02;;;5.47;;
23868;SDS011;12115;47.128;15.422;2023-07-09T08:40:13;7.88;;;5.43;;
23868;SDS011;12115;47.128;15.422;2023-07-09T08:42:46;10.40;;;5.97;;
23868;SDS011;12115;47.128;15.422;2023-07-09T08:45:30;7.72;;;5.57;;
23868;SDS011;12115;47.128;15.422;2023-07-09T08:48:15;6.15;;;4.78;;
23868;SDS011;12115;47.128;15.422;2023-07-09T08:50:54;7.88;;;5.88;;
23868;SDS011;12115;47.128;15.422;2023-07-09T08:55:56;7.63;;;5.47;;
23868;SDS011;12115;47.128;15.422;2023-07-09T08:58:31;7.43;;;5.50;;
23868;SDS011;12115;47.128;15.422;2023-07-09T09:00:59;8.80;;;5.15;;
23868;SDS011;12115;47.128;15.422;2023-07-09T09:06:19;7.45;;;5.15;;
23868;SDS011;12115;47.128;15.422;2023-07-09T09:14:36;7.82;;;4.85;;
23868;SDS011;12115;47.128;15.422;2023-07-09T09:17:15;9.43;;;5.10;;
23868;SDS011;12115;47.128;15.422;2023-07-09T09:19:48;8.13;;;4.90;;
23868;SDS011;12115;47.128;15.422;2023-07-09T09:22:21;7.45;;;4.97;;
23868;SDS011;12115;47.128;15.422;2023-07-09T09:24:58;7.90;;;5.20;;
23868;SDS011;12115;47.128;15.422;2023-07-09T09:27:43;5.72;;;4.68;;
23868;SDS011;12115;47.128;15.422;2023-07-09T09:30:16;6.63;;;4.93;;
23868;SDS011;12115;47.128;15.422;2023-07-09T09:32:56;5.57;;;4.80;;
23868;SDS011;12115;47.128;15.422;2023-07-09T09:35:33;5.38;;;4.85;;
23868;SDS011;12115;47.128;15.422;2023-07-09T09:38:12;6.90;;;4.32;;
23868;SDS011;12115;47.128;15.422;2023-07-09T09:40:42;7.65;;;4.70;;
23868;SDS011;12115;47.128;15.422;2023-07-09T09:43:19;5.63;;;4.05;;
23868;SDS011;12115;47.128;15.422;2023-07-09T09:45:49;5.75;;;4.38;;
23868;SDS011;12115;47.128;15.422;2023-07-09T09:48:27;8.60;;;4.45;;
23868;SDS011;12115;47.128;15.422;2023-07-09T09:50:56;5.63;;;4.32;;
23868;SDS011;12115;47.128;15.422;2023-07-09T09:53:29;5.60;;;3.83;;
23868;SDS011;12115;47.128;15.422;2023-07-09T09:56:04;6.60;;;4.85;;
23868;SDS011;12115;47.128;15.422;2023-07-09T09:58:33;6.88;;;4.90;;
23868;SDS011;12115;47.128;15.422;2023-07-09T10:01:01;7.30;;;5.38;;
23868;SDS011;12115;47.128;15.422;2023-07-09T10:03:33;6.00;;;4.55;;
23868;SDS011;12115;47.128;15.422;2023-07-09T10:06:04;5.88;;;5.07;;
23868;SDS011;12115;47.128;15.422;2023-07-09T10:09:00;5.85;;;4.78;;
23868;SDS011;12115;47.128;15.422;2023-07-09T10:11:46;6.50;;;4.57;;
23868;SDS011;12115;47.128;15.422;2023-07-09T10:25:30;6.10;;;4.80;;
23868;SDS011;12115;47.128;15.422;2023-07-09T10:40:08;5.82;;;4.78;;
23868;SDS011;12115;47.128;15.422;2023-07-09T10:42:45;7.65;;;4.85;;
23868;SDS011;12115;47.128;15.422;2023-07-09T10:45:22;7.00;;;4.68;;
23868;SDS011;12115;47.128;15.422;2023-07-09T10:47:57;7.63;;;4.25;;
23868;SDS011;12115;47.128;15.422;2023-07-09T10:50:36;5.15;;;4.65;;
23868;SDS011;12115;47.128;15.422;2023-07-09T10:55:53;5.13;;;4.47;;
23868;SDS011;12115;47.128;15.422;2023-07-09T11:01:04;6.40;;;4.88;;
23868;SDS011;12115;47.128;15.422;2023-07-09T11:03:50;4.97;;;4.22;;
23868;SDS011;12115;47.128;15.422;2023-07-09T11:06:34;5.18;;;4.25;;
23868;SDS011;12115;47.128;15.422;2023-07-09T11:09:20;5.38;;;4.88;;
23868;SDS011;12115;47.128;15.422;2023-07-09T11:11:54;6.28;;;4.70;;
23868;SDS011;12115;47.128;15.422;2023-07-09T11:14:28;5.75;;;4.43;;
23868;SDS011;12115;47.128;15.422;2023-07-09T11:17:07;5.20;;;4.15;;
23868;SDS011;12115;47.128;15.422;2023-07-09T11:19:45;4.63;;;4.18;;
23868;SDS011;12115;47.128;15.422;2023-07-09T11:22:20;4.80;;;4.20;;
23868;SDS011;12115;47.128;15.422;2023-07-09T11:25:03;5.30;;;4.80;;
23868;SDS011;12115;47.128;15.422;2023-07-09T11:27:49;9.30;;;4.53;;
23868;SDS011;12115;47.128;15.422;2023-07-09T11:32:56;5.25;;;4.00;;
23868;SDS011;12115;47.128;15.422;2023-07-09T11:35:49;6.85;;;4.22;;
23868;SDS011;12115;47.128;15.422;2023-07-09T11:38:19;8.68;;;3.85;;
23868;SDS011;12115;47.128;15.422;2023-07-09T11:40:54;4.50;;;4.10;;
23868;SDS011;12115;47.128;15.422;2023-07-09T11:43:31;10.75;;;4.20;;
23868;SDS011;12115;47.128;15.422;2023-07-09T11:46:04;5.32;;;3.90;;
23868;SDS011;12115;47.128;15.422;2023-07-09T11:48:38;6.45;;;4.47;;
23868;SDS011;12115;47.128;15.422;2023-07-09T11:51:17;6.40;;;4.50;;
23868;SDS011;12115;47.128;15.422;2023-07-09T11:53:49;7.53;;;4.38;;
23868;SDS011;12115;47.128;15.422;2023-07-09T11:56:20;6.10;;;4.00;;
23868;SDS011;12115;47.128;15.422;2023-07-09T11:58:49;5.72;;;4.35;;
23868;SDS011;12115;47.128;15.422;2023-07-09T12:01:23;6.43;;;4.28;;
23868;SDS011;12115;47.128;15.422;2023-07-09T12:03:55;6.68;;;4.22;;
23868;SDS011;12115;47.128;15.422;2023-07-09T12:06:26;7.57;;;4.13;;
23868;SDS011;12115;47.128;15.422;2023-07-09T12:08:55;5.03;;;4.35;;
23868;SDS011;12115;47.128;15.422;2023-07-09T12:11:24;7.22;;;4.22;;
23868;SDS011;12115;47.128;15.422;2023-07-09T12:13:54;6.28;;;4.40;;
23868;SDS011;12115;47.128;15.422;2023-07-09T12:16:36;4.78;;;4.18;;
23868;SDS011;12115;47.128;15.422;2023-07-09T12:19:06;5.22;;;4.30;;
23868;SDS011;12115;47.128;15.422;2023-07-09T12:21:36;4.57;;;3.90;;
23868;SDS011;12115;47.128;15.422;2023-07-09T12:26:52;5.20;;;3.90;;
23868;SDS011;12115;47.128;15.422;2023-07-09T12:29:20;7.30;;;4.80;;
23868;SDS011;12115;47.128;15.422;2023-07-09T12:31:51;4.75;;;3.75;;
23868;SDS011;12115;47.128;15.422;2023-07-09T12:34:18;5.72;;;3.72;;
23868;SDS011;12115;47.128;15.422;2023-07-09T12:36:49;7.13;;;4.35;;
23868;SDS011;12115;47.128;15.422;2023-07-09T12:39:22;6.18;;;4.20;;
23868;SDS011;12115;47.128;15.422;2023-07-09T12:41:56;6.60;;;4.40;;
23868;SDS011;12115;47.128;15.422;2023-07-09T12:44:26;5.15;;;4.15;;
23868;SDS011;12115;47.128;15.422;2023-07-09T12:46:56;6.75;;;4.32;;
23868;SDS011;12115;47.128;15.422;2023-07-09T12:49:27;5.60;;;4.00;;
23868;SDS011;12115;47.128;15.422;2023-07-09T12:51:57;5.57;;;3.97;;
23868;SDS011;12115;47.128;15.422;2023-07-09T12:54:27;5.18;;;4.60;;
23868;SDS011;12115;47.128;15.422;2023-07-09T12:56:58;7.57;;;4.28;;
23868;SDS011;12115;47.128;15.422;2023-07-09T12:59:38;6.40;;;4.20;;
23868;SDS011;12115;47.128;15.422;2023-07-09T13:04:36;4.43;;;3.70;;
23868;SDS011;12115;47.128;15.422;2023-07-09T13:07:04;7.03;;;4.18;;
23868;SDS011;12115;47.128;15.422;2023-07-09T13:09:50;8.68;;;4.38;;
23868;SDS011;12115;47.128;15.422;2023-07-09T13:12:18;5.30;;;3.80;;
23868;SDS011;12115;47.128;15.422;2023-07-09T13:14:52;4.40;;;3.97;;
23868;SDS011;12115;47.128;15.422;2023-07-09T13:17:21;4.10;;;3.70;;
23868;SDS011;12115;47.128;15.422;2023-07-09T13:19:48;5.28;;;4.05;;
23868;SDS011;12115;47.128;15.422;2023-07-09T13:22:17;5.47;;;4.30;;
23868;SDS011;12115;47.128;15.422;2023-07-09T13:24:45;7.20;;;4.13;;
23868;SDS011;12115;47.128;15.422;2023-07-09T13:27:13;4.80;;;3.85;;
23868;SDS011;12115;47.128;15.422;2023-07-09T13:29:42;5.32;;;4.38;;
23868;SDS011;12115;47.128;15.422;2023-07-09T13:32:10;4.85;;;4.03;;
23868;SDS011;12115;47.128;15.422;2023-07-09T13:34:38;6.25;;;3.70;;
23868;SDS011;12115;47.128;15.422;2023-07-09T13:37:13;5.32;;;4.03;;
23868;SDS011;12115;47.128;15.422;2023-07-09T13:39:42;6.00;;;3.80;;
23868;SDS011;12115;47.128;15.422;2023-07-09T13:42:13;5.43;;;4.35;;
23868;SDS011;12115;47.128;15.422;2023-07-09T13:44:44;7.90;;;4.18;;
23868;SDS011;12115;47.128;15.422;2023-07-09T13:47:15;4.90;;;3.83;;
23868;SDS011;12115;47.128;15.422;2023-07-09T13:49:45;4.82;;;3.67;;
23868;SDS011;12115;47.128;15.422;2023-07-09T13:52:17;6.68;;;3.90;;
23868;SDS011;12115;47.128;15.422;2023-07-09T13:54:46;4.33;;;3.77;;
23868;SDS011;12115;47.128;15.422;2023-07-09T13:57:17;4.55;;;4.05;;
23868;SDS011;12115;47.128;15.422;2023-07-09T13:59:48;6.78;;;4.60;;
23868;SDS011;12115;47.128;15.422;2023-07-09T14:04:50;4.82;;;3.72;;
23868;SDS011;12115;47.128;15.422;2023-07-09T14:09:56;4.75;;;4.15;;
23868;SDS011;12115;47.128;15.422;2023-07-09T14:12:23;6.30;;;3.88;;
23868;SDS011;12115;47.128;15.422;2023-07-09T14:14:51;5.00;;;3.85;;
23868;SDS011;12115;47.128;15.422;2023-07-09T14:17:19;5.72;;;3.60;;
23868;SDS011;12115;47.128;15.422;2023-07-09T14:19:48;6.82;;;4.13;;
23868;SDS011;12115;47.128;15.422;2023-07-09T14:24:59;4.53;;;3.85;;
23868;SDS011;12115;47.128;15.422;2023-07-09T14:27:26;4.85;;;4.22;;
23868;SDS011;12115;47.128;15.422;2023-07-09T14:29:54;6.80;;;4.15;;
23868;SDS011;12115;47.128;15.422;2023-07-09T14:34:54;6.63;;;3.65;;
23868;SDS011;12115;47.128;15.422;2023-07-09T14:37:21;4.47;;;4.00;;
23868;SDS011;12115;47.128;15.422;2023-07-09T14:39:48;5.75;;;3.67;;
23868;SDS011;12115;47.128;15.422;2023-07-09T14:42:16;4.32;;;3.92;;
23868;SDS011;12115;47.128;15.422;2023-07-09T14:44:44;4.18;;;3.50;;
23868;SDS011;12115;47.128;15.422;2023-07-09T14:47:21;4.07;;;3.67;;
23868;SDS011;12115;47.128;15.422;2023-07-09T14:49:49;5.28;;;3.95;;
23868;SDS011;12115;47.128;15.422;2023-07-09T14:52:18;6.38;;;3.97;;
23868;SDS011;12115;47.128;15.422;2023-07-09T14:54:48;5.47;;;3.95;;
23868;SDS011;12115;47.128;15.422;2023-07-09T14:57:18;5.38;;;3.90;;
23868;SDS011;12115;47.128;15.422;2023-07-09T14:59:50;5.72;;;4.50;;
23868;SDS011;12115;47.128;15.422;2023-07-09T15:02:32;5.50;;;4.20;;
23868;SDS011;12115;47.128;15.422;2023-07-09T15:05:02;6.05;;;3.72;;
23868;SDS011;12115;47.128;15.422;2023-07-09T15:07:37;5.88;;;4.30;;
23868;SDS011;12115;47.128;15.422;2023-07-09T15:10:04;5.00;;;4.35;;
23868;SDS011;12115;47.128;15.422;2023-07-09T15:12:34;4.32;;;3.92;;
23868;SDS011;12115;47.128;15.422;2023-07-09T15:17:41;7.00;;;4.30;;
23868;SDS011;12115;47.128;15.422;2023-07-09T15:20:27;4.70;;;3.95;;
23868;SDS011;12115;47.128;15.422;2023-07-09T15:22:56;5.00;;;3.95;;
23868;SDS011;12115;47.128;15.422;2023-07-09T15:25:26;4.85;;;4.03;;
23868;SDS011;12115;47.128;15.422;2023-07-09T15:27:54;6.57;;;4.35;;
23868;SDS011;12115;47.128;15.422;2023-07-09T15:30:27;4.70;;;3.92;;
23868;SDS011;12115;47.128;15.422;2023-07-09T15:32:57;5.97;;;4.30;;
23868;SDS011;12115;47.128;15.422;2023-07-09T15:35:34;7.45;;;4.03;;
23868;SDS011;12115;47.128;15.422;2023-07-09T15:40:45;6.28;;;4.15;;
23868;SDS011;12115;47.128;15.422;2023-07-09T15:43:15;5.63;;;4.10;;
23868;SDS011;12115;47.128;15.422;2023-07-09T15:45:44;5.88;;;3.95;;
23868;SDS011;12115;47.128;15.422;2023-07-09T15:48:19;8.50;;;4.00;;
23868;SDS011;12115;47.128;15.422;2023-07-09T15:50:56;4.68;;;4.18;;
23868;SDS011;12115;47.128;15.422;2023-07-09T15:53:24;4.78;;;3.90;;
23868;SDS011;12115;47.128;15.422;2023-07-09T15:55:53;4.35;;;3.53;;
23868;SDS011;12115;47.128;15.422;2023-07-09T15:58:25;5.32;;;4.07;;
23868;SDS011;12115;47.128;15.422;2023-07-09T16:00:54;5.63;;;4.40;;